sensor_id;sensor_type;location;lat;lon;timestamp;pressure;altitude;pressure_sealevel;temperature;humidity
32789;BME280;19141;48.980;8.410;2022-11-20T05:22:32;99745.44;;;6.58;100.00
32789;BME280;19141;48.980;8.410;2022-11-20T05:24:57;99746.97;;;6.61;100.00
32789;BME280;19141;48.980;8.410;2022-11-20T05:27:23;99739.50;;;6.64;100.00
32789;BME280;19141;48.980;8.410;2022-11-20T05:29:48;99739.88;;;6.69;100.00
32789;BME280;19141;48.980;8.410;2022-11-20T05:32:13;99746.50;;;6.73;100.00
32789;BME280;19141;48.980;8.410;2022-11-20T05:34:39;99750.47;;;6.77;100.00
32789;BME280;19141;48.980;8.410;2022-11-20T05:37:04;99747.81;;;6.77;100.00
32789;BME280;19141;48.980;8.410;2022-11-20T05:39:29;99742.69;;;6.76;100.00
32789;BME280;19141;48.980;8.410;2022-11-20T05:41:55;99738.22;;;6.76;100.00
32789;BME280;19141;48.980;8.410;2022-11-20T05:44:39;99740.56;;;6.79;100.00
32789;BME280;19141;48.980;8.410;2022-11-20T05:47:05;99737.09;;;6.79;100.00
32789;BME280;19141;48.980;8.410;2022-11-20T05:49:30;99732.09;;;6.76;100.00
32789;BME280;19141;48.980;8.410;2022-11-20T05:51:56;99729.97;;;6.79;100.00
32789;BME280;19141;48.980;8.410;2022-11-20T05:54:21;99739.25;;;6.84;100.00
32789;BME280;19141;48.980;8.410;2022-11-20T05:56:47;99729.00;;;6.80;100.00
32789;BME280;19141;48.980;8.410;2022-11-20T05:59:12;99734.28;;;6.80;100.00
32789;BME280;19141;48.980;8.410;2022-11-20T06:01:37;99741.22;;;6.82;100.00
32789;BME280;19141;48.980;8.410;2022-11-20T06:04:03;99740.59;;;6.88;100.00
32789;BME280;19141;48.980;8.410;2022-11-20T06:06:28;99735.94;;;6.82;100.00
32789;BME280;19141;48.980;8.410;2022-11-20T06:08:54;99747.03;;;6.85;100.00
32789;BME280;19141;48.980;8.410;2022-11-20T06:11:20;99738.41;;;6.83;100.00
32789;BME280;19141;48.980;8.410;2022-11-20T06:13:46;99741.59;;;6.87;100.00
32789;BME280;19141;48.980;8.410;2022-11-20T06:16:13;99739.94;;;6.86;100.00
32789;BME280;19141;48.980;8.410;2022-11-20T06:18:39;99747.88;;;6.86;100.00
32789;BME280;19141;48.980;8.410;2022-11-20T06:21:10;99739.59;;;6.89;100.00
32789;BME280;19141;48.980;8.410;2022-11-20T06:23:37;99741.41;;;6.88;100.00
32789;BME280;19141;48.980;8.410;2022-11-20T06:26:11;99741.59;;;6.95;100.00
32789;BME280;19141;48.980;8.410;2022-11-20T06:28:38;99740.41;;;6.89;100.00
32789;BME280;19141;48.980;8.410;2022-11-20T06:31:04;99746.53;;;6.90;100.00
32789;BME280;19141;48.980;8.410;2022-11-20T06:33:30;99741.25;;;6.90;100.00
32789;BME280;19141;48.980;8.410;2022-11-20T06:35:59;99738.28;;;6.93;100.00
32789;BME280;19141;48.980;8.410;2022-11-20T06:38:26;99738.47;;;6.91;100.00
32789;BME280;19141;48.980;8.410;2022-11-20T06:40:51;99733.81;;;6.93;100.00
32789;BME280;19141;48.980;8.410;2022-11-20T06:43:17;99734.00;;;6.92;100.00
32789;BME280;19141;48.980;8.410;2022-11-20T06:45:42;99734.81;;;6.92;100.00
32789;BME280;19141;48.980;8.410;2022-11-20T06:48:08;99739.94;;;6.94;100.00
32789;BME280;19141;48.980;8.410;2022-11-20T06:50:36;99747.06;;;6.93;100.00
32789;BME280;19141;48.980;8.410;2022-11-20T06:53:01;99742.91;;;6.91;100.00
32789;BME280;19141;48.980;8.410;2022-11-20T06:55:28;99751.53;;;6.93;100.00
32789;BME280;19141;48.980;8.410;2022-11-20T06:57:53;99754.84;;;6.95;100.00
32789;BME280;19141;48.980;8.410;2022-11-20T07:00:18;99757.19;;;6.98;100.00
32789;BME280;19141;48.980;8.410;2022-11-20T07:02:44;99759.13;;;6.96;100.00
32789;BME280;19141;48.980;8.410;2022-11-20T07:05:09;99765.94;;;6.98;100.00
32789;BME280;19141;48.980;8.410;2022-11-20T07:07:35;99763.78;;;6.94;100.00
32789;BME280;19141;48.980;8.410;2022-11-20T07:10:00;99770.91;;;7.01;100.00
32789;BME280;19141;48.980;8.410;2022-11-20T07:12:25;99774.56;;;7.00;100.00
32789;BME280;19141;48.980;8.410;2022-11-20T07:14:51;99764.94;;;6.99;100.00
32789;BME280;19141;48.980;8.410;2022-11-20T07:17:16;99772.22;;;6.97;100.00
32789;BME280;19141;48.980;8.410;2022-11-20T07:19:41;99775.84;;;6.96;100.00
32789;BME280;19141;48.980;8.410;2022-11-20T07:22:08;99781.97;;;6.97;100.00
32789;BME280;19141;48.980;8.410;2022-11-20T07:24:33;99779.84;;;6.92;100.00
32789;BME280;19141;48.980;8.410;2022-11-20T07:27:00;99776.31;;;6.84;100.00
32789;BME280;19141;48.980;8.410;2022-11-20T07:29:25;99776.00;;;6.87;100.00
32789;BME280;19141;48.980;8.410;2022-11-20T07:31:50;99776.31;;;6.84;100.00
32789;BME280;19141;48.980;8.410;2022-11-20T07:34:16;99776.66;;;6.80;100.00
32789;BME280;19141;48.980;8.410;2022-11-20T07:36:41;99776.81;;;6.87;100.00
32789;BME280;19141;48.980;8.410;2022-11-20T07:39:07;99779.31;;;6.89;100.00
32789;BME280;19141;48.980;8.410;2022-11-20T07:41:32;99777.00;;;6.86;100.00
32789;BME280;19141;48.980;8.410;2022-11-20T07:43:57;99787.72;;;6.84;100.00
32789;BME280;19141;48.980;8.410;2022-11-20T07:46:23;99784.13;;;6.85;100.00
32789;BME280;19141;48.980;8.410;2022-11-20T07:48:48;99785.59;;;6.88;100.00
32789;BME280;19141;48.980;8.410;2022-11-20T07:51:14;99787.25;;;6.89;100.00
32789;BME280;19141;48.980;8.410;2022-11-20T07:53:39;99796.03;;;6.89;100.00
32789;BME280;19141;48.980;8.410;2022-11-20T07:56:05;99785.25;;;6.91;100.00
32789;BME280;19141;48.980;8.410;2022-11-20T07:58:31;99785.44;;;6.89;100.00
32789;BME280;19141;48.980;8.410;2022-11-20T08:01:02;99792.91;;;6.94;100.00
32789;BME280;19141;48.980;8.410;2022-11-20T08:03:28;99789.59;;;6.92;100.00
32789;BME280;19141;48.980;8.410;2022-11-20T08:05:53;99794.56;;;6.95;100.00
32789;BME280;19141;48.980;8.410;2022-11-20T08:08:19;99794.88;;;6.92;100.00
32789;BME280;19141;48.980;8.410;2022-11-20T08:10:45;99803.50;;;6.94;100.00
32789;BME280;19141;48.980;8.410;2022-11-20T08:13:10;99793.19;;;6.91;100.00
32789;BME280;19141;48.980;8.410;2022-11-20T08:15:54;99807.13;;;6.93;100.00
32789;BME280;19141;48.980;8.410;2022-11-20T08:18:20;99805.81;;;6.97;100.00
32789;BME280;19141;48.980;8.410;2022-11-20T08:20:45;99810.44;;;6.95;100.00
32789;BME280;19141;48.980;8.410;2022-11-20T08:23:11;99818.56;;;6.93;100.00
32789;BME280;19141;48.980;8.410;2022-11-20T08:25:37;99822.53;;;6.97;100.00
32789;BME280;19141;48.980;8.410;2022-11-20T08:28:05;99814.25;;;6.92;100.00
32789;BME280;19141;48.980;8.410;2022-11-20T08:30:31;99817.38;;;6.88;100.00
32789;BME280;19141;48.980;8.410;2022-11-20T08:33:10;99811.28;;;6.95;100.00
32789;BME280;19141;48.980;8.410;2022-11-20T08:35:36;99820.41;;;7.01;100.00
32789;BME280;19141;48.980;8.410;2022-11-20T08:38:05;99824.03;;;7.00;100.00
32789;BME280;19141;48.980;8.410;2022-11-20T08:40:32;99825.69;;;7.01;100.00
32789;BME280;19141;48.980;8.410;2022-11-20T08:42:57;99831.16;;;6.99;100.00
32789;BME280;19141;48.980;8.410;2022-11-20T08:45:22;99830.66;;;7.04;100.00
32789;BME280;19141;48.980;8.410;2022-11-20T08:47:48;99837.63;;;7.05;100.00
32789;BME280;19141;48.980;8.410;2022-11-20T08:50:15;99835.81;;;7.05;100.00
32789;BME280;19141;48.980;8.410;2022-11-20T08:52:40;99846.25;;;7.07;100.00
32789;BME280;19141;48.980;8.410;2022-11-20T08:55:07;99836.31;;;7.09;100.00
32789;BME280;19141;48.980;8.410;2022-11-20T08:57:33;99837.81;;;7.12;100.00
32789;BME280;19141;48.980;8.410;2022-11-20T08:59:59;99835.00;;;7.13;100.00
32789;BME280;19141;48.980;8.410;2022-11-20T09:02:25;99847.06;;;7.07;100.00
32789;BME280;19141;48.980;8.410;2022-11-20T09:04:50;99847.25;;;7.14;100.00
32789;BME280;19141;48.980;8.410;2022-11-20T09:07:16;99850.91;;;7.13;100.00
32789;BME280;19141;48.980;8.410;2022-11-20T09:09:41;99852.25;;;7.17;100.00
32789;BME280;19141;48.980;8.410;2022-11-20T09:12:07;99839.66;;;7.11;100.00
32789;BME280;19141;48.980;8.410;2022-11-20T09:14:32;99856.50;;;7.10;100.00
32789;BME280;19141;48.980;8.410;2022-11-20T09:16:58;99861.13;;;7.08;100.00
32789;BME280;19141;48.980;8.410;2022-11-20T09:19:24;99852.88;;;7.11;100.00
32789;BME280;19141;48.980;8.410;2022-11-20T09:21:50;99857.00;;;7.05;100.00
32789;BME280;19141;48.980;8.410;2022-11-20T09:24:15;99863.94;;;7.06;100.00
32789;BME280;19141;48.980;8.410;2022-11-20T09:26:41;99856.00;;;7.06;100.00
32789;BME280;19141;48.980;8.410;2022-11-20T09:29:06;99860.84;;;7.11;100.00
32789;BME280;19141;48.980;8.410;2022-11-20T09:31:32;99863.47;;;7.11;100.00
32789;BME280;19141;48.980;8.410;2022-11-20T09:33:57;99872.41;;;7.10;100.00
32789;BME280;19141;48.980;8.410;2022-11-20T09:36:23;99867.44;;;7.07;100.00
32789;BME280;19141;48.980;8.410;2022-11-20T09:38:48;99865.44;;;7.09;100.00
32789;BME280;19141;48.980;8.410;2022-11-20T09:41:36;99873.38;;;7.01;100.00
32789;BME280;19141;48.980;8.410;2022-11-20T09:44:32;99874.03;;;7.03;100.00
32789;BME280;19141;48.980;8.410;2022-11-20T09:47:32;99871.72;;;7.00;100.00
32789;BME280;19141;48.980;8.410;2022-11-20T09:50:15;99875.34;;;6.99;100.00
32789;BME280;19141;48.980;8.410;2022-11-20T09:55:24;99880.13;;;6.95;100.00
32789;BME280;19141;48.980;8.410;2022-11-20T09:57:51;99878.13;;;6.97;100.00
32789;BME280;19141;48.980;8.410;2022-11-20T10:00:18;99886.25;;;6.96;100.00
32789;BME280;19141;48.980;8.410;2022-11-20T10:03:20;99881.63;;;6.98;100.00
32789;BME280;19141;48.980;8.410;2022-11-20T10:05:52;99879.94;;;6.97;100.00
32789;BME280;19141;48.980;8.410;2022-11-20T10:08:29;99877.63;;;6.94;100.00
32789;BME280;19141;48.980;8.410;2022-11-20T10:11:07;99876.81;;;6.93;100.00
32789;BME280;19141;48.980;8.410;2022-11-20T10:13:49;99879.28;;;6.95;100.00
32789;BME280;19141;48.980;8.410;2022-11-20T10:16:47;99880.13;;;6.95;100.00
32789;BME280;19141;48.980;8.410;2022-11-20T10:19:35;99878.66;;;7.01;100.00
32789;BME280;19141;48.980;8.410;2022-11-20T10:22:21;99880.50;;;7.08;100.00
32789;BME280;19141;48.980;8.410;2022-11-20T10:25:03;99868.47;;;7.22;100.00
32789;BME280;19141;48.980;8.410;2022-11-20T10:30:18;99867.78;;;8.11;100.00
32789;BME280;19141;48.980;8.410;2022-11-20T10:32:58;99863.78;;;8.56;100.00
32789;BME280;19141;48.980;8.410;2022-11-20T10:35:32;99868.97;;;8.97;100.00
32789;BME280;19141;48.980;8.410;2022-11-20T10:38:01;99850.94;;;9.46;100.00
32789;BME280;19141;48.980;8.410;2022-11-20T10:43:02;99855.34;;;9.31;100.00
32789;BME280;19141;48.980;8.410;2022-11-20T10:45:38;99840.19;;;9.09;100.00
32789;BME280;19141;48.980;8.410;2022-11-20T10:48:22;99836.22;;;9.05;100.00
32789;BME280;19141;48.980;8.410;2022-11-20T10:51:10;99832.16;;;9.17;100.00
32789;BME280;19141;48.980;8.410;2022-11-20T10:56:40;99842.06;;;9.00;100.00
32789;BME280;19141;48.980;8.410;2022-11-20T10:59:35;99829.88;;;9.14;100.00
32789;BME280;19141;48.980;8.410;2022-11-20T11:02:21;99825.88;;;9.64;100.00
32789;BME280;19141;48.980;8.410;2022-11-20T11:04:52;99827.00;;;9.69;100.00
32789;BME280;19141;48.980;8.410;2022-11-20T11:07:24;99810.16;;;9.77;100.00
32789;BME280;19141;48.980;8.410;2022-11-20T11:09:53;99820.16;;;9.75;100.00
32789;BME280;19141;48.980;8.410;2022-11-20T11:12:20;99815.97;;;9.58;100.00
32789;BME280;19141;48.980;8.410;2022-11-20T11:14:51;99807.41;;;9.47;100.00
32789;BME280;19141;48.980;8.410;2022-11-20T11:17:26;99805.22;;;9.51;100.00
32789;BME280;19141;48.980;8.410;2022-11-20T11:20:05;99798.31;;;9.42;100.00
32789;BME280;19141;48.980;8.410;2022-11-20T11:22:34;99797.34;;;9.35;100.00
32789;BME280;19141;48.980;8.410;2022-11-20T11:25:00;99797.34;;;9.35;100.00
32789;BME280;19141;48.980;8.410;2022-11-20T11:27:26;99790.41;;;9.25;100.00
32789;BME280;19141;48.980;8.410;2022-11-20T11:30:11;99788.19;;;9.14;100.00
32789;BME280;19141;48.980;8.410;2022-11-20T11:32:38;99778.94;;;9.33;100.00
32789;BME280;19141;48.980;8.410;2022-11-20T11:35:22;99777.63;;;10.42;99.72
32789;BME280;19141;48.980;8.410;2022-11-20T11:37:48;99776.00;;;11.64;93.99
32789;BME280;19141;48.980;8.410;2022-11-20T11:40:15;99779.00;;;12.67;83.18
32789;BME280;19141;48.980;8.410;2022-11-20T11:42:43;99769.06;;;13.63;75.52
32789;BME280;19141;48.980;8.410;2022-11-20T11:45:14;99766.53;;;14.15;70.06
32789;BME280;19141;48.980;8.410;2022-11-20T11:50:18;99762.88;;;14.93;66.57
32789;BME280;19141;48.980;8.410;2022-11-20T11:52:48;99749.91;;;13.86;62.79
32789;BME280;19141;48.980;8.410;2022-11-20T11:55:36;99749.00;;;14.32;63.41
32789;BME280;19141;48.980;8.410;2022-11-20T12:00:35;99741.19;;;15.02;60.98
32789;BME280;19141;48.980;8.410;2022-11-20T12:03:12;99735.63;;;14.97;60.46
32789;BME280;19141;48.980;8.410;2022-11-20T12:05:44;99730.50;;;15.27;57.81
32789;BME280;19141;48.980;8.410;2022-11-20T12:10:54;99745.97;;;13.82;60.03
32789;BME280;19141;48.980;8.410;2022-11-20T12:15:58;99755.72;;;12.54;66.05
32789;BME280;19141;48.980;8.410;2022-11-20T12:18:24;99745.22;;;12.18;71.50
32789;BME280;19141;48.980;8.410;2022-11-20T12:23:36;99735.78;;;11.66;74.60
32789;BME280;19141;48.980;8.410;2022-11-20T12:26:17;99739.69;;;11.42;74.39
32789;BME280;19141;48.980;8.410;2022-11-20T12:28:55;99737.72;;;11.29;74.27
32789;BME280;19141;48.980;8.410;2022-11-20T12:31:29;99737.00;;;11.21;73.75
32789;BME280;19141;48.980;8.410;2022-11-20T12:39:35;99742.72;;;11.18;69.08
32789;BME280;19141;48.980;8.410;2022-11-20T12:45:06;99743.75;;;11.81;66.30
32789;BME280;19141;48.980;8.410;2022-11-20T12:48:13;99736.97;;;11.85;65.78
32789;BME280;19141;48.980;8.410;2022-11-20T13:01:27;99729.50;;;11.52;63.52
32789;BME280;19141;48.980;8.410;2022-11-20T13:06:53;99725.81;;;11.53;63.17
32789;BME280;19141;48.980;8.410;2022-11-20T13:09:20;99727.78;;;11.45;61.94
32789;BME280;19141;48.980;8.410;2022-11-20T13:20:15;99714.13;;;11.33;63.20
32789;BME280;19141;48.980;8.410;2022-11-20T13:22:49;99698.91;;;11.27;59.88
32789;BME280;19141;48.980;8.410;2022-11-20T13:25:31;99698.09;;;11.05;61.01
32789;BME280;19141;48.980;8.410;2022-11-20T13:27:59;99698.78;;;10.92;63.78
32789;BME280;19141;48.980;8.410;2022-11-20T13:30:29;99696.09;;;10.71;63.62
32789;BME280;19141;48.980;8.410;2022-11-20T13:33:06;99698.75;;;10.56;63.84
32789;BME280;19141;48.980;8.410;2022-11-20T13:35:37;99695.19;;;10.49;63.85
32789;BME280;19141;48.980;8.410;2022-11-20T13:38:08;99700.59;;;10.55;62.95
32789;BME280;19141;48.980;8.410;2022-11-20T13:40:59;99701.34;;;10.49;62.39
32789;BME280;19141;48.980;8.410;2022-11-20T13:43:35;99699.06;;;10.31;61.16
32789;BME280;19141;48.980;8.410;2022-11-20T13:46:06;99699.66;;;10.04;61.84
32789;BME280;19141;48.980;8.410;2022-11-20T13:48:34;99694.19;;;10.20;63.00
32789;BME280;19141;48.980;8.410;2022-11-20T13:56:49;99679.03;;;10.21;63.22
32789;BME280;19141;48.980;8.410;2022-11-20T13:59:40;99681.91;;;10.04;64.38
32789;BME280;19141;48.980;8.410;2022-11-20T14:02:14;99680.69;;;9.92;65.35
32789;BME280;19141;48.980;8.410;2022-11-20T14:04:44;99677.47;;;9.82;67.61
32789;BME280;19141;48.980;8.410;2022-11-20T14:07:11;99674.34;;;9.93;65.87
32789;BME280;19141;48.980;8.410;2022-11-20T14:09:36;99663.97;;;9.84;65.58
32789;BME280;19141;48.980;8.410;2022-11-20T14:12:03;99678.13;;;9.99;67.63
32789;BME280;19141;48.980;8.410;2022-11-20T14:14:30;99667.00;;;9.95;66.03
32789;BME280;19141;48.980;8.410;2022-11-20T14:17:09;99667.00;;;9.81;64.85
32789;BME280;19141;48.980;8.410;2022-11-20T14:19:44;99657.66;;;9.85;65.86
32789;BME280;19141;48.980;8.410;2022-11-20T14:24:38;99643.34;;;9.86;65.65
32789;BME280;19141;48.980;8.410;2022-11-20T14:27:04;99653.97;;;9.71;64.83
32789;BME280;19141;48.980;8.410;2022-11-20T14:29:35;99648.53;;;9.64;65.13
32789;BME280;19141;48.980;8.410;2022-11-20T14:32:02;99648.09;;;9.61;65.60
32789;BME280;19141;48.980;8.410;2022-11-20T14:34:31;99642.75;;;9.46;66.44
32789;BME280;19141;48.980;8.410;2022-11-20T14:37:04;99639.34;;;9.37;67.31
32789;BME280;19141;48.980;8.410;2022-11-20T14:39:33;99643.41;;;9.25;66.73
32789;BME280;19141;48.980;8.410;2022-11-20T14:41:59;99635.28;;;9.27;66.97
32789;BME280;19141;48.980;8.410;2022-11-20T14:44:31;99629.09;;;9.11;68.84
32789;BME280;19141;48.980;8.410;2022-11-20T14:47:00;99635.59;;;9.09;67.21
32789;BME280;19141;48.980;8.410;2022-11-20T14:49:29;99644.91;;;9.05;68.18
32789;BME280;19141;48.980;8.410;2022-11-20T14:52:00;99632.31;;;9.07;69.85
32789;BME280;19141;48.980;8.410;2022-11-20T14:54:26;99632.72;;;8.95;68.30
32789;BME280;19141;48.980;8.410;2022-11-20T14:56:58;99632.22;;;8.92;69.26
32789;BME280;19141;48.980;8.410;2022-11-20T14:59:32;99634.94;;;8.84;70.51
32789;BME280;19141;48.980;8.410;2022-11-20T15:02:08;99626.53;;;8.80;70.55
32789;BME280;19141;48.980;8.410;2022-11-20T15:04:49;99620.78;;;8.68;70.68
32789;BME280;19141;48.980;8.410;2022-11-20T15:07:26;99619.13;;;8.67;71.19
32789;BME280;19141;48.980;8.410;2022-11-20T15:10:38;99618.28;;;8.67;70.65
32789;BME280;19141;48.980;8.410;2022-11-20T15:13:01;99616.63;;;8.66;71.41
32789;BME280;19141;48.980;8.410;2022-11-20T15:17:59;99604.44;;;8.57;70.56
32789;BME280;19141;48.980;8.410;2022-11-20T15:20:27;99600.47;;;8.53;72.43
32789;BME280;19141;48.980;8.410;2022-11-20T15:22:54;99609.44;;;8.52;73.91
32789;BME280;19141;48.980;8.410;2022-11-20T15:25:19;99598.22;;;8.41;73.81
32789;BME280;19141;48.980;8.410;2022-11-20T15:27:45;99594.56;;;8.34;73.83
32789;BME280;19141;48.980;8.410;2022-11-20T15:30:17;99595.72;;;8.40;73.67
32789;BME280;19141;48.980;8.410;2022-11-20T15:32:43;99583.50;;;8.31;74.10
32789;BME280;19141;48.980;8.410;2022-11-20T15:35:10;99593.75;;;8.34;73.18
32789;BME280;19141;48.980;8.410;2022-11-20T15:37:36;99606.19;;;8.33;74.55
32789;BME280;19141;48.980;8.410;2022-11-20T15:40:02;99598.94;;;8.35;73.05
32789;BME280;19141;48.980;8.410;2022-11-20T15:42:28;99610.38;;;8.36;73.95
32789;BME280;19141;48.980;8.410;2022-11-20T15:44:53;99598.06;;;8.35;74.14
32789;BME280;19141;48.980;8.410;2022-11-20T15:47:23;99594.09;;;8.39;74.97
32789;BME280;19141;48.980;8.410;2022-11-20T15:49:50;99590.97;;;8.35;73.54
32789;BME280;19141;48.980;8.410;2022-11-20T15:52:16;99586.59;;;8.34;73.41
32789;BME280;19141;48.980;8.410;2022-11-20T15:54:41;99590.97;;;8.35;74.61
32789;BME280;19141;48.980;8.410;2022-11-20T15:57:06;99582.16;;;8.35;72.65
32789;BME280;19141;48.980;8.410;2022-11-20T15:59:32;99588.16;;;8.29;72.99
32789;BME280;19141;48.980;8.410;2022-11-20T16:01:57;99587.78;;;8.32;73.51
32789;BME280;19141;48.980;8.410;2022-11-20T16:04:23;99584.31;;;8.31;73.34
32789;BME280;19141;48.980;8.410;2022-11-20T16:06:48;99582.31;;;8.33;74.55
32789;BME280;19141;48.980;8.410;2022-11-20T16:09:14;99578.38;;;8.29;73.84
32789;BME280;19141;48.980;8.410;2022-11-20T16:11:39;99583.31;;;8.32;74.27
32789;BME280;19141;48.980;8.410;2022-11-20T16:14:05;99580.84;;;8.31;74.99
32789;BME280;19141;48.980;8.410;2022-11-20T16:16:49;99572.56;;;8.26;75.07
32789;BME280;19141;48.980;8.410;2022-11-20T16:19:15;99578.06;;;8.24;74.76
32789;BME280;19141;48.980;8.410;2022-11-20T16:21:41;99578.88;;;8.25;73.72
32789;BME280;19141;48.980;8.410;2022-11-20T16:24:09;99575.41;;;8.24;74.92
32789;BME280;19141;48.980;8.410;2022-11-20T16:26:36;99579.06;;;8.23;75.20
32789;BME280;19141;48.980;8.410;2022-11-20T16:29:03;99572.75;;;8.24;73.95
32789;BME280;19141;48.980;8.410;2022-11-20T16:31:29;99568.97;;;8.19;74.47
32789;BME280;19141;48.980;8.410;2022-11-20T16:33:56;99559.34;;;8.18;75.61
32789;BME280;19141;48.980;8.410;2022-11-20T16:36:24;99556.69;;;8.18;74.80
32789;BME280;19141;48.980;8.410;2022-11-20T16:39:00;99546.91;;;8.18;74.33
32789;BME280;19141;48.980;8.410;2022-11-20T16:41:29;99554.22;;;8.16;74.25
32789;BME280;19141;48.980;8.410;2022-11-20T16:43:56;99540.66;;;8.11;75.15
32789;BME280;19141;48.980;8.410;2022-11-20T16:46:23;99546.97;;;8.10;75.77
32789;BME280;19141;48.980;8.410;2022-11-20T16:49:00;99551.44;;;8.09;76.27
32789;BME280;19141;48.980;8.410;2022-11-20T16:51:27;99542.81;;;8.07;75.75
32789;BME280;19141;48.980;8.410;2022-11-20T16:53:53;99534.03;;;8.07;76.56
32789;BME280;19141;48.980;8.410;2022-11-20T16:56:24;99534.22;;;8.05;76.25
32789;BME280;19141;48.980;8.410;2022-11-20T16:58:52;99544.00;;;8.05;75.69
32789;BME280;19141;48.980;8.410;2022-11-20T17:01:19;99542.34;;;8.04;76.43
32789;BME280;19141;48.980;8.410;2022-11-20T17:03:58;99540.34;;;8.06;77.12
32789;BME280;19141;48.980;8.410;2022-11-20T17:06:29;99537.88;;;8.04;78.27
32789;BME280;19141;48.980;8.410;2022-11-20T17:08:55;99540.03;;;8.01;78.32
32789;BME280;19141;48.980;8.410;2022-11-20T17:11:22;99539.03;;;8.02;79.18
32789;BME280;19141;48.980;8.410;2022-11-20T17:13:48;99538.38;;;8.00;80.16
32789;BME280;19141;48.980;8.410;2022-11-20T17:16:15;99533.44;;;7.97;80.98
32789;BME280;19141;48.980;8.410;2022-11-20T17:18:41;99530.59;;;7.98;81.80
32789;BME280;19141;48.980;8.410;2022-11-20T17:21:08;99538.06;;;7.95;81.69
32789;BME280;19141;48.980;8.410;2022-11-20T17:23:37;99535.41;;;7.95;84.33
32789;BME280;19141;48.980;8.410;2022-11-20T17:26:05;99522.22;;;7.86;88.41
32789;BME280;19141;48.980;8.410;2022-11-20T17:28:31;99524.72;;;7.80;89.24
32789;BME280;19141;48.980;8.410;2022-11-20T17:31:11;99523.94;;;7.71;89.69
32789;BME280;19141;48.980;8.410;2022-11-20T17:33:38;99529.94;;;7.65;89.97
32789;BME280;19141;48.980;8.410;2022-11-20T17:36:05;99517.34;;;7.59;90.24
32789;BME280;19141;48.980;8.410;2022-11-20T17:38:31;99523.00;;;7.56;91.67
32789;BME280;19141;48.980;8.410;2022-11-20T17:41:07;99520.19;;;7.57;90.91
32789;BME280;19141;48.980;8.410;2022-11-20T17:43:33;99513.38;;;7.55;91.61
32789;BME280;19141;48.980;8.410;2022-11-20T17:46:08;99513.94;;;7.50;91.91
32789;BME280;19141;48.980;8.410;2022-11-20T17:48:34;99512.75;;;7.53;91.86
32789;BME280;19141;48.980;8.410;2022-11-20T17:51:01;99508.75;;;7.57;91.27
32789;BME280;19141;48.980;8.410;2022-11-20T17:53:28;99501.47;;;7.59;90.94
32789;BME280;19141;48.980;8.410;2022-11-20T17:55:57;99501.78;;;7.56;92.13
32789;BME280;19141;48.980;8.410;2022-11-20T17:58:40;99506.63;;;7.52;94.30
32789;BME280;19141;48.980;8.410;2022-11-20T18:01:07;99504.16;;;7.51;94.61
32789;BME280;19141;48.980;8.410;2022-11-20T18:03:32;99499.19;;;7.48;96.75
32789;BME280;19141;48.980;8.410;2022-11-20T18:05:58;99498.22;;;7.41;95.16
32789;BME280;19141;48.980;8.410;2022-11-20T18:08:23;99499.84;;;7.42;96.40
32789;BME280;19141;48.980;8.410;2022-11-20T18:10:51;99487.97;;;7.38;96.07
32789;BME280;19141;48.980;8.410;2022-11-20T18:13:16;99495.09;;;7.29;96.11
32789;BME280;19141;48.980;8.410;2022-11-20T18:15:42;99501.72;;;7.33;96.37
32789;BME280;19141;48.980;8.410;2022-11-20T18:18:07;99504.72;;;7.22;98.52
32789;BME280;19141;48.980;8.410;2022-11-20T18:20:33;99503.59;;;7.08;100.00
32789;BME280;19141;48.980;8.410;2022-11-20T18:22:58;99509.25;;;7.05;100.00
32789;BME280;19141;48.980;8.410;2022-11-20T18:25:24;99510.91;;;6.90;100.00
32789;BME280;19141;48.980;8.410;2022-11-20T18:27:49;99507.09;;;6.84;100.00
32789;BME280;19141;48.980;8.410;2022-11-20T18:30:17;99505.78;;;6.64;100.00
32789;BME280;19141;48.980;8.410;2022-11-20T18:32:42;99511.44;;;6.61;100.00
32789;BME280;19141;48.980;8.410;2022-11-20T18:35:08;99514.56;;;6.56;100.00
32789;BME280;19141;48.980;8.410;2022-11-20T18:37:34;99499.69;;;6.47;100.00
32789;BME280;19141;48.980;8.410;2022-11-20T18:39:59;99499.50;;;6.40;100.00
32789;BME280;19141;48.980;8.410;2022-11-20T18:42:24;99496.84;;;6.32;100.00
32789;BME280;19141;48.980;8.410;2022-11-20T18:45:08;99481.66;;;6.26;100.00
32789;BME280;19141;48.980;8.410;2022-11-20T18:47:35;99480.66;;;6.27;100.00
32789;BME280;19141;48.980;8.410;2022-11-20T18:50:03;99478.50;;;6.22;100.00
32789;BME280;19141;48.980;8.410;2022-11-20T18:52:38;99477.84;;;6.20;100.00
32789;BME280;19141;48.980;8.410;2022-11-20T18:55:04;99480.31;;;6.14;100.00
32789;BME280;19141;48.980;8.410;2022-11-20T18:57:30;99469.56;;;6.15;100.00
32789;BME280;19141;48.980;8.410;2022-11-20T18:59:56;99461.81;;;6.14;100.00
32789;BME280;19141;48.980;8.410;2022-11-20T19:02:26;99463.94;;;6.10;100.00
32789;BME280;19141;48.980;8.410;2022-11-20T19:04:53;99453.00;;;6.05;100.00
32789;BME280;19141;48.980;8.410;2022-11-20T19:07:18;99454.66;;;6.06;100.00
32789;BME280;19141;48.980;8.410;2022-11-20T19:09:48;99458.31;;;6.05;100.00
32789;BME280;19141;48.980;8.410;2022-11-20T19:12:14;99454.34;;;6.01;100.00
32789;BME280;19141;48.980;8.410;2022-11-20T19:14:40;99453.66;;;5.99;100.00
32789;BME280;19141;48.980;8.410;2022-11-20T19:17:06;99453.00;;;5.97;100.00
32789;BME280;19141;48.980;8.410;2022-11-20T19:19:32;99451.69;;;6.01;100.00
32789;BME280;19141;48.980;8.410;2022-11-20T19:21:58;99448.06;;;5.94;100.00
32789;BME280;19141;48.980;8.410;2022-11-20T19:24:23;99441.09;;;5.93;100.00
32789;BME280;19141;48.980;8.410;2022-11-20T19:26:49;99451.00;;;5.91;100.00
32789;BME280;19141;48.980;8.410;2022-11-20T19:29:15;99448.81;;;5.86;100.00
32789;BME280;19141;48.980;8.410;2022-11-20T19:31:41;99451.31;;;5.88;100.00
32789;BME280;19141;48.980;8.410;2022-11-20T19:34:08;99452.63;;;5.84;100.00
32789;BME280;19141;48.980;8.410;2022-11-20T19:36:36;99450.81;;;5.84;100.00
32789;BME280;19141;48.980;8.410;2022-11-20T19:39:03;99446.97;;;5.79;100.00
32789;BME280;19141;48.980;8.410;2022-11-20T19:41:31;99447.81;;;5.79;100.00